sensor_id;sensor_type;location;lat;lon;timestamp;temperature;humidity
31967;DHT22;18496;52.042;6.812;2024-01-07T00:01:17;4.80;99.90
31967;DHT22;18496;52.042;6.812;2024-01-07T00:03:21;4.90;99.90
31967;DHT22;18496;52.042;6.812;2024-01-07T00:05:25;4.80;99.90
31967;DHT22;18496;52.042;6.812;2024-01-07T00:07:28;4.90;99.90
31967;DHT22;18496;52.042;6.812;2024-01-07T00:09:32;4.90;99.90
31967;DHT22;18496;52.042;6.812;2024-01-07T00:11:36;4.90;99.90
31967;DHT22;18496;52.042;6.812;2024-01-07T00:13:40;4.90;99.90
31967;DHT22;18496;52.042;6.812;2024-01-07T00:15:44;4.90;99.90
31967;DHT22;18496;52.042;6.812;2024-01-07T00:17:47;4.90;99.90
31967;DHT22;18496;52.042;6.812;2024-01-07T00:19:51;4.90;99.90
31967;DHT22;18496;52.042;6.812;2024-01-07T00:21:55;4.80;99.90
31967;DHT22;18496;52.042;6.812;2024-01-07T00:23:59;4.80;99.90
31967;DHT22;18496;52.042;6.812;2024-01-07T00:26:03;4.80;99.90
31967;DHT22;18496;52.042;6.812;2024-01-07T00:28:07;4.80;99.90
31967;DHT22;18496;52.042;6.812;2024-01-07T00:30:11;4.80;99.90
31967;DHT22;18496;52.042;6.812;2024-01-07T00:32:15;4.80;99.90
31967;DHT22;18496;52.042;6.812;2024-01-07T00:34:19;4.80;99.90
31967;DHT22;18496;52.042;6.812;2024-01-07T00:36:22;4.80;99.90
31967;DHT22;18496;52.042;6.812;2024-01-07T00:38:26;4.70;99.90
31967;DHT22;18496;52.042;6.812;2024-01-07T00:40:32;4.70;99.90
31967;DHT22;18496;52.042;6.812;2024-01-07T00:42:36;4.70;99.90
31967;DHT22;18496;52.042;6.812;2024-01-07T00:44:40;4.70;99.90
31967;DHT22;18496;52.042;6.812;2024-01-07T00:46:44;4.70;99.90
31967;DHT22;18496;52.042;6.812;2024-01-07T00:48:47;4.70;99.90
31967;DHT22;18496;52.042;6.812;2024-01-07T00:50:51;4.70;99.90
31967;DHT22;18496;52.042;6.812;2024-01-07T00:52:55;4.70;99.90
31967;DHT22;18496;52.042;6.812;2024-01-07T00:54:59;4.80;99.90
31967;DHT22;18496;52.042;6.812;2024-01-07T00:57:03;4.80;99.90
31967;DHT22;18496;52.042;6.812;2024-01-07T00:59:07;4.80;99.90
31967;DHT22;18496;52.042;6.812;2024-01-07T01:01:11;4.80;99.90
31967;DHT22;18496;52.042;6.812;2024-01-07T01:03:15;4.80;99.90
31967;DHT22;18496;52.042;6.812;2024-01-07T01:05:18;4.70;99.90
31967;DHT22;18496;52.042;6.812;2024-01-07T01:07:22;4.70;99.90
31967;DHT22;18496;52.042;6.812;2024-01-07T01:09:28;4.70;99.90
31967;DHT22;18496;52.042;6.812;2024-01-07T01:11:35;4.70;99.90
31967;DHT22;18496;52.042;6.812;2024-01-07T01:13:39;4.70;99.90
31967;DHT22;18496;52.042;6.812;2024-01-07T01:15:43;4.70;99.90
31967;DHT22;18496;52.042;6.812;2024-01-07T01:17:47;4.70;99.90
31967;DHT22;18496;52.042;6.812;2024-01-07T01:19:50;4.60;99.90
31967;DHT22;18496;52.042;6.812;2024-01-07T01:21:54;4.60;99.90
31967;DHT22;18496;52.042;6.812;2024-01-07T01:23:58;4.60;99.90
31967;DHT22;18496;52.042;6.812;2024-01-07T01:26:02;4.60;99.90
31967;DHT22;18496;52.042;6.812;2024-01-07T01:28:06;4.60;99.90
31967;DHT22;18496;52.042;6.812;2024-01-07T01:30:10;4.60;99.90
31967;DHT22;18496;52.042;6.812;2024-01-07T01:32:14;4.60;99.90
31967;DHT22;18496;52.042;6.812;2024-01-07T01:34:18;4.60;99.90
31967;DHT22;18496;52.042;6.812;2024-01-07T01:36:22;4.60;99.90
31967;DHT22;18496;52.042;6.812;2024-01-07T01:38:27;4.60;99.90
31967;DHT22;18496;52.042;6.812;2024-01-07T01:40:32;4.50;99.90
31967;DHT22;18496;52.042;6.812;2024-01-07T01:42:36;4.50;99.90
31967;DHT22;18496;52.042;6.812;2024-01-07T01:44:39;4.50;99.90
31967;DHT22;18496;52.042;6.812;2024-01-07T01:46:45;4.50;99.90
31967;DHT22;18496;52.042;6.812;2024-01-07T01:48:50;4.50;99.90
31967;DHT22;18496;52.042;6.812;2024-01-07T01:50:55;4.50;99.90
31967;DHT22;18496;52.042;6.812;2024-01-07T01:53:01;4.50;99.90
31967;DHT22;18496;52.042;6.812;2024-01-07T01:55:05;4.50;99.90
31967;DHT22;18496;52.042;6.812;2024-01-07T01:57:13;4.60;99.90
31967;DHT22;18496;52.042;6.812;2024-01-07T01:59:19;4.60;99.90
31967;DHT22;18496;52.042;6.812;2024-01-07T02:01:24;4.50;99.90
31967;DHT22;18496;52.042;6.812;2024-01-07T02:03:29;4.60;99.90
31967;DHT22;18496;52.042;6.812;2024-01-07T02:05:33;4.60;99.90
31967;DHT22;18496;52.042;6.812;2024-01-07T02:07:36;4.60;99.90
31967;DHT22;18496;52.042;6.812;2024-01-07T02:09:40;4.50;99.90
31967;DHT22;18496;52.042;6.812;2024-01-07T02:11:48;4.50;99.90
31967;DHT22;18496;52.042;6.812;2024-01-07T02:14:03;4.50;99.90
31967;DHT22;18496;52.042;6.812;2024-01-07T02:16:06;4.40;99.90
31967;DHT22;18496;52.042;6.812;2024-01-07T02:18:10;4.40;99.90
31967;DHT22;18496;52.042;6.812;2024-01-07T02:20:14;4.30;99.90
31967;DHT22;18496;52.042;6.812;2024-01-07T02:22:18;4.30;99.90
31967;DHT22;18496;52.042;6.812;2024-01-07T02:24:22;4.30;99.90
31967;DHT22;18496;52.042;6.812;2024-01-07T02:26:26;4.30;99.90
31967;DHT22;18496;52.042;6.812;2024-01-07T02:28:30;4.30;99.90
31967;DHT22;18496;52.042;6.812;2024-01-07T02:30:34;4.30;99.90
31967;DHT22;18496;52.042;6.812;2024-01-07T02:32:38;4.30;99.90
31967;DHT22;18496;52.042;6.812;2024-01-07T02:34:42;4.30;99.90
31967;DHT22;18496;52.042;6.812;2024-01-07T02:36:46;4.30;99.90
31967;DHT22;18496;52.042;6.812;2024-01-07T02:38:49;4.30;99.90
31967;DHT22;18496;52.042;6.812;2024-01-07T02:40:53;4.30;99.90
31967;DHT22;18496;52.042;6.812;2024-01-07T02:42:57;4.30;99.90
31967;DHT22;18496;52.042;6.812;2024-01-07T02:45:01;4.30;99.90
31967;DHT22;18496;52.042;6.812;2024-01-07T02:47:06;4.30;99.90
31967;DHT22;18496;52.042;6.812;2024-01-07T02:49:10;4.30;99.90
31967;DHT22;18496;52.042;6.812;2024-01-07T02:51:14;4.40;99.90
31967;DHT22;18496;52.042;6.812;2024-01-07T02:53:17;4.40;99.90
31967;DHT22;18496;52.042;6.812;2024-01-07T02:55:21;4.40;99.90
31967;DHT22;18496;52.042;6.812;2024-01-07T02:57:25;4.40;99.90
31967;DHT22;18496;52.042;6.812;2024-01-07T02:59:28;4.30;99.90
31967;DHT22;18496;52.042;6.812;2024-01-07T03:01:32;4.30;99.90
31967;DHT22;18496;52.042;6.812;2024-01-07T03:03:43;4.30;99.90
31967;DHT22;18496;52.042;6.812;2024-01-07T03:05:47;4.30;99.90
31967;DHT22;18496;52.042;6.812;2024-01-07T03:07:52;4.30;99.90
31967;DHT22;18496;52.042;6.812;2024-01-07T03:09:56;4.30;99.90
31967;DHT22;18496;52.042;6.812;2024-01-07T03:11:59;4.30;99.90
31967;DHT22;18496;52.042;6.812;2024-01-07T03:14:03;4.30;99.90
31967;DHT22;18496;52.042;6.812;2024-01-07T03:16:07;4.30;99.90
31967;DHT22;18496;52.042;6.812;2024-01-07T03:18:11;4.30;99.90
31967;DHT22;18496;52.042;6.812;2024-01-07T03:20:14;4.30;99.90
31967;DHT22;18496;52.042;6.812;2024-01-07T03:22:18;4.30;99.90
31967;DHT22;18496;52.042;6.812;2024-01-07T03:24:22;4.30;99.90
31967;DHT22;18496;52.042;6.812;2024-01-07T03:26:30;4.20;99.90
31967;DHT22;18496;52.042;6.812;2024-01-07T03:28:35;4.20;99.90
31967;DHT22;18496;52.042;6.812;2024-01-07T03:30:39;4.20;99.90
31967;DHT22;18496;52.042;6.812;2024-01-07T03:32:43;4.20;99.90
31967;DHT22;18496;52.042;6.812;2024-01-07T03:34:46;4.10;99.90
31967;DHT22;18496;52.042;6.812;2024-01-07T03:36:50;4.10;99.90
31967;DHT22;18496;52.042;6.812;2024-01-07T03:38:54;4.10;99.90
31967;DHT22;18496;52.042;6.812;2024-01-07T03:40:58;4.10;99.90
31967;DHT22;18496;52.042;6.812;2024-01-07T03:43:02;4.10;99.90
31967;DHT22;18496;52.042;6.812;2024-01-07T03:45:05;4.10;99.90
31967;DHT22;18496;52.042;6.812;2024-01-07T03:47:09;4.20;99.90
31967;DHT22;18496;52.042;6.812;2024-01-07T03:49:13;4.20;99.90
31967;DHT22;18496;52.042;6.812;2024-01-07T03:51:17;4.10;99.90
31967;DHT22;18496;52.042;6.812;2024-01-07T03:53:21;4.20;99.90
31967;DHT22;18496;52.042;6.812;2024-01-07T03:55:24;4.10;99.90
31967;DHT22;18496;52.042;6.812;2024-01-07T03:57:28;4.10;99.90
31967;DHT22;18496;52.042;6.812;2024-01-07T03:59:32;4.10;99.90
31967;DHT22;18496;52.042;6.812;2024-01-07T04:01:35;4.10;99.90
31967;DHT22;18496;52.042;6.812;2024-01-07T04:03:39;4.00;99.90
31967;DHT22;18496;52.042;6.812;2024-01-07T04:05:43;4.00;99.90
31967;DHT22;18496;52.042;6.812;2024-01-07T04:07:48;4.10;99.90
31967;DHT22;18496;52.042;6.812;2024-01-07T04:09:52;4.10;99.90
31967;DHT22;18496;52.042;6.812;2024-01-07T04:11:56;4.10;99.90
31967;DHT22;18496;52.042;6.812;2024-01-07T04:13:59;4.00;99.90
31967;DHT22;18496;52.042;6.812;2024-01-07T04:16:03;4.00;99.90
31967;DHT22;18496;52.042;6.812;2024-01-07T04:18:07;4.10;99.90
31967;DHT22;18496;52.042;6.812;2024-01-07T04:20:13;4.10;99.90
31967;DHT22;18496;52.042;6.812;2024-01-07T04:22:17;4.10;99.90
31967;DHT22;18496;52.042;6.812;2024-01-07T04:24:21;4.10;99.90
31967;DHT22;18496;52.042;6.812;2024-01-07T04:26:24;4.10;99.90
31967;DHT22;18496;52.042;6.812;2024-01-07T04:28:28;4.10;99.90
31967;DHT22;18496;52.042;6.812;2024-01-07T04:30:32;4.10;99.90
31967;DHT22;18496;52.042;6.812;2024-01-07T04:32:36;4.10;99.90
31967;DHT22;18496;52.042;6.812;2024-01-07T04:34:39;4.10;99.90
31967;DHT22;18496;52.042;6.812;2024-01-07T04:36:43;4.10;99.90
31967;DHT22;18496;52.042;6.812;2024-01-07T04:38:47;4.10;99.90
31967;DHT22;18496;52.042;6.812;2024-01-07T04:40:51;4.00;99.90
31967;DHT22;18496;52.042;6.812;2024-01-07T04:42:55;4.00;99.90
31967;DHT22;18496;52.042;6.812;2024-01-07T04:44:59;4.00;99.90
31967;DHT22;18496;52.042;6.812;2024-01-07T04:47:03;4.00;99.90
31967;DHT22;18496;52.042;6.812;2024-01-07T04:49:07;4.00;99.90
31967;DHT22;18496;52.042;6.812;2024-01-07T04:51:10;4.00;99.90
31967;DHT22;18496;52.042;6.812;2024-01-07T04:53:14;3.90;99.90
31967;DHT22;18496;52.042;6.812;2024-01-07T04:55:18;3.90;99.90
31967;DHT22;18496;52.042;6.812;2024-01-07T04:57:22;3.90;99.90
31967;DHT22;18496;52.042;6.812;2024-01-07T04:59:25;3.90;99.90
31967;DHT22;18496;52.042;6.812;2024-01-07T05:01:29;3.90;99.90
31967;DHT22;18496;52.042;6.812;2024-01-07T05:03:33;3.90;99.90
31967;DHT22;18496;52.042;6.812;2024-01-07T05:05:37;3.90;99.90
31967;DHT22;18496;52.042;6.812;2024-01-07T05:07:42;3.80;99.90
31967;DHT22;18496;52.042;6.812;2024-01-07T05:09:45;3.80;99.90
31967;DHT22;18496;52.042;6.812;2024-01-07T05:11:49;3.90;99.90
31967;DHT22;18496;52.042;6.812;2024-01-07T05:13:53;3.90;99.90
31967;DHT22;18496;52.042;6.812;2024-01-07T05:15:57;3.90;99.90
31967;DHT22;18496;52.042;6.812;2024-01-07T05:18:00;3.90;99.90
31967;DHT22;18496;52.042;6.812;2024-01-07T05:20:05;3.90;99.90
31967;DHT22;18496;52.042;6.812;2024-01-07T05:22:10;3.90;99.90
31967;DHT22;18496;52.042;6.812;2024-01-07T05:24:13;3.90;99.90
31967;DHT22;18496;52.042;6.812;2024-01-07T05:26:17;4.00;99.90
31967;DHT22;18496;52.042;6.812;2024-01-07T05:28:21;4.00;99.90
31967;DHT22;18496;52.042;6.812;2024-01-07T05:30:25;4.00;99.90
31967;DHT22;18496;52.042;6.812;2024-01-07T05:32:29;3.90;99.90
31967;DHT22;18496;52.042;6.812;2024-01-07T05:34:33;3.90;99.90
31967;DHT22;18496;52.042;6.812;2024-01-07T05:36:36;3.90;99.90
31967;DHT22;18496;52.042;6.812;2024-01-07T05:38:43;3.90;99.90
31967;DHT22;18496;52.042;6.812;2024-01-07T05:40:47;3.90;99.90
31967;DHT22;18496;52.042;6.812;2024-01-07T05:42:51;3.90;99.90
31967;DHT22;18496;52.042;6.812;2024-01-07T05:44:55;3.90;99.90
31967;DHT22;18496;52.042;6.812;2024-01-07T05:46:58;3.90;99.90
31967;DHT22;18496;52.042;6.812;2024-01-07T05:49:02;3.80;99.90
31967;DHT22;18496;52.042;6.812;2024-01-07T05:51:06;3.80;99.90
31967;DHT22;18496;52.042;6.812;2024-01-07T05:53:09;3.80;99.90
31967;DHT22;18496;52.042;6.812;2024-01-07T05:55:13;3.80;99.90
31967;DHT22;18496;52.042;6.812;2024-01-07T05:57:17;3.70;99.90
31967;DHT22;18496;52.042;6.812;2024-01-07T05:59:21;3.70;99.90
31967;DHT22;18496;52.042;6.812;2024-01-07T06:01:25;3.70;99.90
31967;DHT22;18496;52.042;6.812;2024-01-07T06:03:31;3.70;99.90
31967;DHT22;18496;52.042;6.812;2024-01-07T06:05:34;3.60;99.90
31967;DHT22;18496;52.042;6.812;2024-01-07T06:07:38;3.60;99.90
31967;DHT22;18496;52.042;6.812;2024-01-07T06:09:42;3.60;99.90
31967;DHT22;18496;52.042;6.812;2024-01-07T06:11:46;3.50;99.90
31967;DHT22;18496;52.042;6.812;2024-01-07T06:13:50;3.50;99.90
31967;DHT22;18496;52.042;6.812;2024-01-07T06:15:53;3.50;99.90
31967;DHT22;18496;52.042;6.812;2024-01-07T06:17:57;3.50;99.90
31967;DHT22;18496;52.042;6.812;2024-01-07T06:20:01;3.50;99.90
31967;DHT22;18496;52.042;6.812;2024-01-07T06:22:05;3.50;99.90
31967;DHT22;18496;52.042;6.812;2024-01-07T06:24:08;3.50;99.90
31967;DHT22;18496;52.042;6.812;2024-01-07T06:26:12;3.50;99.90
31967;DHT22;18496;52.042;6.812;2024-01-07T06:28:16;3.50;99.90
31967;DHT22;18496;52.042;6.812;2024-01-07T06:30:19;3.50;99.90
31967;DHT22;18496;52.042;6.812;2024-01-07T06:32:23;3.50;99.90
31967;DHT22;18496;52.042;6.812;2024-01-07T06:34:28;3.50;99.90
31967;DHT22;18496;52.042;6.812;2024-01-07T06:36:32;3.60;99.90
31967;DHT22;18496;52.042;6.812;2024-01-07T06:38:36;3.60;99.90
31967;DHT22;18496;52.042;6.812;2024-01-07T06:40:39;3.60;99.90
31967;DHT22;18496;52.042;6.812;2024-01-07T06:42:43;3.60;99.90
31967;DHT22;18496;52.042;6.812;2024-01-07T06:44:48;3.60;99.90
31967;DHT22;18496;52.042;6.812;2024-01-07T06:46:51;3.60;99.90
31967;DHT22;18496;52.042;6.812;2024-01-07T06:48:55;3.60;99.90
31967;DHT22;18496;52.042;6.812;2024-01-07T06:51:00;3.50;99.90
31967;DHT22;18496;52.042;6.812;2024-01-07T06:53:03;3.50;99.90
31967;DHT22;18496;52.042;6.812;2024-01-07T06:55:07;3.50;99.90
31967;DHT22;18496;52.042;6.812;2024-01-07T06:57:11;3.50;99.90
31967;DHT22;18496;52.042;6.812;2024-01-07T06:59:15;3.50;99.90
31967;DHT22;18496;52.042;6.812;2024-01-07T07:01:22;3.50;99.90
31967;DHT22;18496;52.042;6.812;2024-01-07T07:03:29;3.50;99.90
31967;DHT22;18496;52.042;6.812;2024-01-07T07:05:33;3.50;99.90
31967;DHT22;18496;52.042;6.812;2024-01-07T07:07:37;3.50;99.90
31967;DHT22;18496;52.042;6.812;2024-01-07T07:09:40;3.50;99.90
31967;DHT22;18496;52.042;6.812;2024-01-07T07:11:44;3.50;99.90
31967;DHT22;18496;52.042;6.812;2024-01-07T07:13:48;3.50;99.90
31967;DHT22;18496;52.042;6.812;2024-01-07T07:15:52;3.40;99.90
31967;DHT22;18496;52.042;6.812;2024-01-07T07:17:56;3.40;99.90
31967;DHT22;18496;52.042;6.812;2024-01-07T07:20:00;3.40;99.90
31967;DHT22;18496;52.042;6.812;2024-01-07T07:22:04;3.40;99.90
31967;DHT22;18496;52.042;6.812;2024-01-07T07:24:08;3.40;99.90
31967;DHT22;18496;52.042;6.812;2024-01-07T07:26:11;3.40;99.90
31967;DHT22;18496;52.042;6.812;2024-01-07T07:28:15;3.40;99.90
31967;DHT22;18496;52.042;6.812;2024-01-07T07:30:20;3.40;99.90
31967;DHT22;18496;52.042;6.812;2024-01-07T07:32:24;3.40;99.90
31967;DHT22;18496;52.042;6.812;2024-01-07T07:34:28;3.40;99.90
31967;DHT22;18496;52.042;6.812;2024-01-07T07:36:32;3.40;99.90
31967;DHT22;18496;52.042;6.812;2024-01-07T07:38:36;3.30;99.90
31967;DHT22;18496;52.042;6.812;2024-01-07T07:40:40;3.30;99.90
31967;DHT22;18496;52.042;6.812;2024-01-07T07:42:44;3.30;99.90
31967;DHT22;18496;52.042;6.812;2024-01-07T07:44:48;3.20;99.90
31967;DHT22;18496;52.042;6.812;2024-01-07T07:46:51;3.20;99.90
31967;DHT22;18496;52.042;6.812;2024-01-07T07:48:55;3.20;99.90
31967;DHT22;18496;52.042;6.812;2024-01-07T07:50:59;3.30;99.90
31967;DHT22;18496;52.042;6.812;2024-01-07T07:53:03;3.30;99.90
31967;DHT22;18496;52.042;6.812;2024-01-07T07:55:07;3.30;99.90
31967;DHT22;18496;52.042;6.812;2024-01-07T07:57:11;3.30;99.90
31967;DHT22;18496;52.042;6.812;2024-01-07T07:59:15;3.30;99.90
31967;DHT22;18496;52.042;6.812;2024-01-07T08:01:18;3.20;99.90
31967;DHT22;18496;52.042;6.812;2024-01-07T08:03:22;3.30;99.90
31967;DHT22;18496;52.042;6.812;2024-01-07T08:05:26;3.20;99.90
31967;DHT22;18496;52.042;6.812;2024-01-07T08:07:29;3.20;99.90
31967;DHT22;18496;52.042;6.812;2024-01-07T08:09:33;3.20;99.90
31967;DHT22;18496;52.042;6.812;2024-01-07T08:11:40;3.30;99.90
31967;DHT22;18496;52.042;6.812;2024-01-07T08:13:44;3.20;99.90
31967;DHT22;18496;52.042;6.812;2024-01-07T08:15:47;3.20;99.90
31967;DHT22;18496;52.042;6.812;2024-01-07T08:17:51;3.20;99.90
31967;DHT22;18496;52.042;6.812;2024-01-07T08:19:55;3.20;99.90
31967;DHT22;18496;52.042;6.812;2024-01-07T08:21:59;3.10;99.90
31967;DHT22;18496;52.042;6.812;2024-01-07T08:24:03;3.20;99.90
31967;DHT22;18496;52.042;6.812;2024-01-07T08:26:07;3.20;99.90
31967;DHT22;18496;52.042;6.812;2024-01-07T08:28:11;3.10;99.90
31967;DHT22;18496;52.042;6.812;2024-01-07T08:30:15;3.10;99.90
31967;DHT22;18496;52.042;6.812;2024-01-07T08:32:18;3.10;99.90
31967;DHT22;18496;52.042;6.812;2024-01-07T08:34:25;3.10;99.90
31967;DHT22;18496;52.042;6.812;2024-01-07T08:36:30;3.10;99.90
31967;DHT22;18496;52.042;6.812;2024-01-07T08:38:34;3.10;99.90
31967;DHT22;18496;52.042;6.812;2024-01-07T08:40:39;3.10;99.90
31967;DHT22;18496;52.042;6.812;2024-01-07T08:42:42;3.10;99.90
31967;DHT22;18496;52.042;6.812;2024-01-07T08:44:46;3.10;99.90
31967;DHT22;18496;52.042;6.812;2024-01-07T08:46:50;3.10;99.90
31967;DHT22;18496;52.042;6.812;2024-01-07T08:48:54;3.10;99.90
31967;DHT22;18496;52.042;6.812;2024-01-07T08:50:58;3.10;99.90
31967;DHT22;18496;52.042;6.812;2024-01-07T08:53:02;3.10;99.90
31967;DHT22;18496;52.042;6.812;2024-01-07T08:55:06;3.10;99.90
31967;DHT22;18496;52.042;6.812;2024-01-07T08:57:11;3.10;99.90
31967;DHT22;18496;52.042;6.812;2024-01-07T08:59:14;3.10;99.90
31967;DHT22;18496;52.042;6.812;2024-01-07T09:01:18;3.10;99.90
31967;DHT22;18496;52.042;6.812;2024-01-07T09:03:22;3.10;99.90
31967;DHT22;18496;52.042;6.812;2024-01-07T09:05:26;3.10;99.90
31967;DHT22;18496;52.042;6.812;2024-01-07T09:07:29;3.10;99.90
31967;DHT22;18496;52.042;6.812;2024-01-07T09:09:33;3.10;99.90
31967;DHT22;18496;52.042;6.812;2024-01-07T09:11:37;3.20;99.90
31967;DHT22;18496;52.042;6.812;2024-01-07T09:13:41;3.20;99.90
31967;DHT22;18496;52.042;6.812;2024-01-07T09:15:45;3.20;99.90
31967;DHT22;18496;52.042;6.812;2024-01-07T09:17:49;3.20;99.90
31967;DHT22;18496;52.042;6.812;2024-01-07T09:19:53;3.20;99.90
31967;DHT22;18496;52.042;6.812;2024-01-07T09:21:57;3.20;99.90
31967;DHT22;18496;52.042;6.812;2024-01-07T09:24:00;3.30;99.90
31967;DHT22;18496;52.042;6.812;2024-01-07T09:26:04;3.30;99.90
31967;DHT22;18496;52.042;6.812;2024-01-07T09:28:08;3.20;99.90
31967;DHT22;18496;52.042;6.812;2024-01-07T09:30:12;3.20;99.90
31967;DHT22;18496;52.042;6.812;2024-01-07T09:32:18;3.20;99.90
31967;DHT22;18496;52.042;6.812;2024-01-07T09:34:22;3.30;99.90
31967;DHT22;18496;52.042;6.812;2024-01-07T09:36:25;3.30;99.90
31967;DHT22;18496;52.042;6.812;2024-01-07T09:38:29;3.30;99.90
31967;DHT22;18496;52.042;6.812;2024-01-07T09:40:33;3.30;99.90
31967;DHT22;18496;52.042;6.812;2024-01-07T09:42:37;3.30;99.90
31967;DHT22;18496;52.042;6.812;2024-01-07T09:44:41;3.30;99.90
31967;DHT22;18496;52.042;6.812;2024-01-07T09:46:46;3.30;99.90
31967;DHT22;18496;52.042;6.812;2024-01-07T09:48:55;3.40;99.90
31967;DHT22;18496;52.042;6.812;2024-01-07T09:51:00;3.40;99.90
31967;DHT22;18496;52.042;6.812;2024-01-07T09:53:07;3.40;99.90
31967;DHT22;18496;52.042;6.812;2024-01-07T09:55:25;3.40;99.90
31967;DHT22;18496;52.042;6.812;2024-01-07T09:57:30;3.40;99.90
31967;DHT22;18496;52.042;6.812;2024-01-07T09:59:36;3.40;99.90
31967;DHT22;18496;52.042;6.812;2024-01-07T10:01:40;3.40;99.90
31967;DHT22;18496;52.042;6.812;2024-01-07T10:03:44;3.40;99.90
31967;DHT22;18496;52.042;6.812;2024-01-07T10:05:48;3.30;99.90
31967;DHT22;18496;52.042;6.812;2024-01-07T10:07:52;3.30;99.90
31967;DHT22;18496;52.042;6.812;2024-01-07T10:10:11;3.40;99.90
31967;DHT22;18496;52.042;6.812;2024-01-07T10:12:15;3.40;99.90
31967;DHT22;18496;52.042;6.812;2024-01-07T10:14:19;3.40;99.90
31967;DHT22;18496;52.042;6.812;2024-01-07T10:16:25;3.40;99.90
31967;DHT22;18496;52.042;6.812;2024-01-07T10:18:30;3.40;99.90
31967;DHT22;18496;52.042;6.812;2024-01-07T10:20:34;3.40;99.90
31967;DHT22;18496;52.042;6.812;2024-01-07T10:22:39;3.50;99.90
31967;DHT22;18496;52.042;6.812;2024-01-07T10:24:42;3.50;99.90
31967;DHT22;18496;52.042;6.812;2024-01-07T10:26:49;3.50;99.90
31967;DHT22;18496;52.042;6.812;2024-01-07T10:28:53;3.50;99.90
31967;DHT22;18496;52.042;6.812;2024-01-07T10:30:56;3.60;99.90
31967;DHT22;18496;52.042;6.812;2024-01-07T10:33:00;3.60;99.90
31967;DHT22;18496;52.042;6.812;2024-01-07T10:35:04;3.60;99.90
31967;DHT22;18496;52.042;6.812;2024-01-07T10:37:09;3.60;99.90
31967;DHT22;18496;52.042;6.812;2024-01-07T10:39:14;3.60;99.90
31967;DHT22;18496;52.042;6.812;2024-01-07T10:41:19;3.60;99.90
31967;DHT22;18496;52.042;6.812;2024-01-07T10:43:23;3.50;99.90
31967;DHT22;18496;52.042;6.812;2024-01-07T10:45:29;3.50;99.90
31967;DHT22;18496;52.042;6.812;2024-01-07T10:47:36;3.50;99.90
31967;DHT22;18496;52.042;6.812;2024-01-07T10:49:40;3.50;99.90
31967;DHT22;18496;52.042;6.812;2024-01-07T10:52:06;3.50;99.90
31967;DHT22;18496;52.042;6.812;2024-01-07T10:54:10;3.50;99.90
31967;DHT22;18496;52.042;6.812;2024-01-07T10:56:24;3.50;99.90
31967;DHT22;18496;52.042;6.812;2024-01-07T10:58:32;3.50;99.90
31967;DHT22;18496;52.042;6.812;2024-01-07T11:00:37;3.50;99.90
31967;DHT22;18496;52.042;6.812;2024-01-07T11:07:35;3.50;99.90
31967;DHT22;18496;52.042;6.812;2024-01-07T11:10:01;3.40;99.90
31967;DHT22;18496;52.042;6.812;2024-01-07T11:12:08;3.40;99.90
31967;DHT22;18496;52.042;6.812;2024-01-07T11:14:34;3.40;99.90
31967;DHT22;18496;52.042;6.812;2024-01-07T11:18:49;3.40;99.90
31967;DHT22;18496;52.042;6.812;2024-01-07T11:20:58;3.30;99.90
31967;DHT22;18496;52.042;6.812;2024-01-07T11:23:28;3.30;99.90
31967;DHT22;18496;52.042;6.812;2024-01-07T11:25:36;3.30;99.90
31967;DHT22;18496;52.042;6.812;2024-01-07T11:27:42;3.30;99.90
31967;DHT22;18496;52.042;6.812;2024-01-07T11:29:53;3.30;99.90
31967;DHT22;18496;52.042;6.812;2024-01-07T11:31:58;3.30;99.90
31967;DHT22;18496;52.042;6.812;2024-01-07T11:34:02;3.30;99.90
31967;DHT22;18496;52.042;6.812;2024-01-07T11:36:06;3.30;99.90
31967;DHT22;18496;52.042;6.812;2024-01-07T11:38:10;3.40;99.90
31967;DHT22;18496;52.042;6.812;2024-01-07T11:40:15;3.40;99.90
31967;DHT22;18496;52.042;6.812;2024-01-07T11:42:18;3.40;99.90
31967;DHT22;18496;52.042;6.812;2024-01-07T11:44:22;3.40;99.90
31967;DHT22;18496;52.042;6.812;2024-01-07T11:46:27;3.40;99.90
31967;DHT22;18496;52.042;6.812;2024-01-07T11:48:31;3.40;99.90
31967;DHT22;18496;52.042;6.812;2024-01-07T11:50:35;3.40;99.90
31967;DHT22;18496;52.042;6.812;2024-01-07T11:52:39;3.40;99.90
31967;DHT22;18496;52.042;6.812;2024-01-07T11:54:45;3.40;99.90
31967;DHT22;18496;52.042;6.812;2024-01-07T11:56:50;3.40;99.90
31967;DHT22;18496;52.042;6.812;2024-01-07T11:58:54;3.30;99.90
31967;DHT22;18496;52.042;6.812;2024-01-07T12:00:59;3.40;99.90
31967;DHT22;18496;52.042;6.812;2024-01-07T12:03:03;3.30;99.90
31967;DHT22;18496;52.042;6.812;2024-01-07T12:05:07;3.30;99.90
31967;DHT22;18496;52.042;6.812;2024-01-07T12:07:11;3.30;99.90
31967;DHT22;18496;52.042;6.812;2024-01-07T12:09:17;3.40;99.90
31967;DHT22;18496;52.042;6.812;2024-01-07T12:11:21;3.40;99.90
31967;DHT22;18496;52.042;6.812;2024-01-07T12:13:26;3.40;99.90
31967;DHT22;18496;52.042;6.812;2024-01-07T12:15:30;3.40;99.90
31967;DHT22;18496;52.042;6.812;2024-01-07T12:17:34;3.50;99.90
31967;DHT22;18496;52.042;6.812;2024-01-07T12:19:40;3.50;99.90
31967;DHT22;18496;52.042;6.812;2024-01-07T12:21:44;3.50;99.90
31967;DHT22;18496;52.042;6.812;2024-01-07T12:23:50;3.50;99.90
31967;DHT22;18496;52.042;6.812;2024-01-07T12:25:54;3.50;99.90
31967;DHT22;18496;52.042;6.812;2024-01-07T12:28:02;3.60;99.90
31967;DHT22;18496;52.042;6.812;2024-01-07T12:30:06;3.60;99.90
31967;DHT22;18496;52.042;6.812;2024-01-07T12:32:10;3.50;99.90
31967;DHT22;18496;52.042;6.812;2024-01-07T12:34:14;3.50;99.90
31967;DHT22;18496;52.042;6.812;2024-01-07T12:36:21;3.50;99.90
31967;DHT22;18496;52.042;6.812;2024-01-07T12:38:25;3.50;99.90
31967;DHT22;18496;52.042;6.812;2024-01-07T12:40:29;3.40;99.90
31967;DHT22;18496;52.042;6.812;2024-01-07T12:42:33;3.40;99.90
31967;DHT22;18496;52.042;6.812;2024-01-07T12:44:36;3.40;99.90
31967;DHT22;18496;52.042;6.812;2024-01-07T12:46:40;3.30;99.90
31967;DHT22;18496;52.042;6.812;2024-01-07T12:48:44;3.30;99.90
31967;DHT22;18496;52.042;6.812;2024-01-07T12:50:48;3.30;99.90
31967;DHT22;18496;52.042;6.812;2024-01-07T12:52:52;3.40;99.90
31967;DHT22;18496;52.042;6.812;2024-01-07T12:54:56;3.40;99.90
31967;DHT22;18496;52.042;6.812;2024-01-07T12:57:00;3.50;99.90
31967;DHT22;18496;52.042;6.812;2024-01-07T12:59:04;3.50;99.90
31967;DHT22;18496;52.042;6.812;2024-01-07T13:01:08;3.60;99.90
31967;DHT22;18496;52.042;6.812;2024-01-07T13:03:12;3.60;99.90
31967;DHT22;18496;52.042;6.812;2024-01-07T13:05:21;3.60;99.90
31967;DHT22;18496;52.042;6.812;2024-01-07T13:07:24;3.60;99.90
31967;DHT22;18496;52.042;6.812;2024-01-07T13:09:29;3.60;99.90
31967;DHT22;18496;52.042;6.812;2024-01-07T13:11:32;3.60;99.90
31967;DHT22;18496;52.042;6.812;2024-01-07T13:13:36;3.60;99.90
31967;DHT22;18496;52.042;6.812;2024-01-07T13:15:40;3.60;99.90
31967;DHT22;18496;52.042;6.812;2024-01-07T13:17:46;3.60;99.90
31967;DHT22;18496;52.042;6.812;2024-01-07T13:19:49;3.60;99.90
31967;DHT22;18496;52.042;6.812;2024-01-07T13:21:53;3.60;99.90
31967;DHT22;18496;52.042;6.812;2024-01-07T13:24:03;3.70;99.90
31967;DHT22;18496;52.042;6.812;2024-01-07T13:26:06;3.70;99.90